createdAt,value
2018-04-11T00:00:18.443Z,55.98
2018-04-11T00:01:18.440Z,56.84
2018-04-11T00:02:18.435Z,57.59
2018-04-11T00:03:18.423Z,57.79
2018-04-11T00:04:18.420Z,58.92
2018-04-11T00:05:18.417Z,59.68
2018-04-11T00:06:18.400Z,59.78
2018-04-11T00:07:18.407Z,60.35
2018-04-11T00:08:18.384Z,59.97
2018-04-11T00:09:18.381Z,60.25
2018-04-11T00:10:18.368Z,60.16
2018-04-11T00:11:18.364Z,59.49
2018-04-11T00:12:18.361Z,59.49
2018-04-11T00:13:18.352Z,59.11
2018-04-11T00:14:18.340Z,59.21
2018-04-11T00:15:18.344Z,59.59
2018-04-11T00:16:18.331Z,59.40
2018-04-11T00:17:18.331Z,59.30
2018-04-11T00:18:18.305Z,59.68
2018-04-11T00:19:18.304Z,59.30
2018-04-11T00:20:18.304Z,59.49
2018-04-11T00:21:18.293Z,59.68
2018-04-11T00:22:18.286Z,59.97
2018-04-11T00:23:18.299Z,60.53
2018-04-11T00:24:18.293Z,60.92
2018-04-11T00:25:18.267Z,60.63
2018-04-11T00:26:18.260Z,61.11
2018-04-11T00:27:18.242Z,60.82
2018-04-11T00:28:18.232Z,61.01
2018-04-11T00:29:18.224Z,61.01
2018-04-11T00:30:18.214Z,60.53
2018-04-11T00:31:18.216Z,60.53
2018-04-11T00:32:18.197Z,60.35
2018-04-11T00:33:18.190Z,60.44
2018-04-11T00:34:18.189Z,60.25
2018-04-11T00:35:18.169Z,60.06
2018-04-11T00:36:18.178Z,59.21
2018-04-11T00:37:18.164Z,59.30
2018-04-11T00:38:18.155Z,58.92
2018-04-11T00:39:18.136Z,59.68
2018-04-11T00:40:18.139Z,59.08
2018-04-11T00:41:18.124Z,58.89
2018-04-11T00:42:18.119Z,58.70
2018-04-11T00:43:18.110Z,58.04
2018-04-11T00:44:18.100Z,58.61
2018-04-11T00:45:18.088Z,58.23
2018-04-11T00:46:18.084Z,57.28
2018-04-11T00:47:18.089Z,56.81
2018-04-11T00:48:18.068Z,56.81
2018-04-11T00:49:18.060Z,56.52
2018-04-11T00:50:18.049Z,56.34
2018-04-11T00:51:18.051Z,56.62
2018-04-11T00:52:18.068Z,56.81
2018-04-11T00:53:18.029Z,56.71
2018-04-11T00:54:18.023Z,56.99
2018-04-11T00:55:18.002Z,56.71
2018-04-11T00:56:18.007Z,56.52
2018-04-11T00:57:18.000Z,56.05
2018-04-11T00:58:17.992Z,56.15
2018-04-11T00:59:17.978Z,56.24
2018-04-11T01:00:17.972Z,56.15
2018-04-11T01:01:17.987Z,55.57
2018-04-11T01:02:17.958Z,55.96
2018-04-11T01:03:17.953Z,55.57
2018-04-11T01:04:17.940Z,55.86
2018-04-11T01:05:17.935Z,56.52
2018-04-11T01:06:17.918Z,56.52
2018-04-11T01:07:17.920Z,56.81
2018-04-11T01:08:17.911Z,57.38
2018-04-11T01:09:17.895Z,57.57
2018-04-11T01:10:17.875Z,58.26
2018-04-11T01:11:17.878Z,58.83
2018-04-11T01:12:17.878Z,60.25
2018-04-11T01:13:17.862Z,60.73
2018-04-11T01:14:17.852Z,60.63
2018-04-11T01:15:17.849Z,61.49
2018-04-11T01:16:17.837Z,61.20
2018-04-11T01:17:17.830Z,61.30
2018-04-11T01:18:17.835Z,60.82
2018-04-11T01:19:17.832Z,61.11
2018-04-11T01:20:17.804Z,61.30
2018-04-11T01:21:17.809Z,61.96
2018-04-11T01:22:17.817Z,61.11
2018-04-11T01:23:17.786Z,61.87
2018-04-11T01:24:17.774Z,61.39
2018-04-11T01:25:17.761Z,61.30
2018-04-11T01:26:17.765Z,60.53
2018-04-11T01:27:17.749Z,61.30
2018-04-11T01:28:17.745Z,61.87
2018-04-11T01:29:17.734Z,62.91
2018-04-11T02:01:58.756Z,58.29
2018-04-11T02:02:58.709Z,58.20
2018-04-11T02:04:51.661Z,56.97
2018-04-11T02:05:51.622Z,56.68
2018-04-11T02:07:44.562Z,54.22
2018-04-11T02:08:44.525Z,54.13
2018-04-11T02:10:37.427Z,54.22
2018-04-11T02:11:37.394Z,54.79
2018-04-11T02:13:30.321Z,54.60
2018-04-11T02:14:30.280Z,55.64
2018-04-11T02:16:23.318Z,56.78
2018-04-11T02:17:23.202Z,57.25
2018-04-11T02:19:16.115Z,56.40
2018-04-11T02:20:16.088Z,56.21
2018-04-11T02:22:09.028Z,57.54
2018-04-11T02:23:08.984Z,56.97
2018-04-11T02:25:01.936Z,55.74
2018-04-11T02:26:01.912Z,55.07
2018-04-11T02:27:54.882Z,53.75
2018-04-11T02:28:54.885Z,54.03
2018-04-11T02:30:47.794Z,53.27
2018-04-11T02:31:47.756Z,53.37
2018-04-11T02:33:40.745Z,53.75
2018-04-11T02:34:40.723Z,54.32
2018-04-11T02:36:33.659Z,53.27
2018-04-11T02:37:33.616Z,54.44
2018-04-11T02:39:26.536Z,54.72
2018-04-11T02:40:26.509Z,54.72
2018-04-11T02:42:19.460Z,55.86
2018-04-11T02:43:19.433Z,55.86
2018-04-11T02:45:12.421Z,56.81
2018-04-11T02:46:12.381Z,56.81
2018-04-11T02:48:05.344Z,57.09
2018-04-11T02:49:05.318Z,56.90
2018-04-11T02:50:58.326Z,56.52
2018-04-11T02:51:58.225Z,56.81
2018-04-11T02:53:51.162Z,56.87
2018-04-11T02:54:51.135Z,59.44
2018-04-11T02:56:44.093Z,61.43
2018-04-11T02:57:44.061Z,60.28
2018-04-11T02:59:36.991Z,56.78
2018-04-11T03:00:36.982Z,55.62
2018-04-11T03:02:29.930Z,54.10
2018-04-11T03:03:29.891Z,53.91
2018-04-11T03:05:22.874Z,54.00
2018-04-11T03:06:22.845Z,53.25
2018-04-11T03:08:15.765Z,52.98
2018-04-11T03:09:15.726Z,53.18
2018-04-11T03:11:08.691Z,53.53
2018-04-11T03:12:08.661Z,52.89
2018-04-11T03:14:01.597Z,52.89
2018-04-11T03:15:01.589Z,52.98
2018-04-11T03:16:54.590Z,52.61
2018-04-11T03:17:54.573Z,53.18
2018-04-11T03:19:47.501Z,53.56
2018-04-11T03:20:47.465Z,52.98
2018-04-11T03:22:40.460Z,53.27
2018-04-11T03:23:40.425Z,53.46
2018-04-11T03:25:33.348Z,53.18
2018-04-11T03:26:33.309Z,53.18
2018-04-11T03:28:26.282Z,53.46
2018-04-11T03:29:26.253Z,53.56
2018-04-11T03:31:19.173Z,54.32
2018-04-11T03:32:19.135Z,54.79
2018-04-11T03:34:12.086Z,54.60
2018-04-11T03:35:12.054Z,54.79
2018-04-11T03:37:04.977Z,54.32
2018-04-11T03:38:04.944Z,54.79
2018-04-11T03:39:57.898Z,54.50
2018-04-11T03:40:57.870Z,54.13
2018-04-11T03:42:50.884Z,54.22
2018-04-11T03:43:50.861Z,53.94
2018-04-11T03:45:43.795Z,54.32
2018-04-11T03:46:43.760Z,53.56
2018-04-11T03:48:36.688Z,53.27
2018-04-11T03:49:36.655Z,53.56
2018-04-11T03:51:29.640Z,54.41
2018-04-11T03:52:29.616Z,54.13
2018-04-11T03:54:22.564Z,54.22
2018-04-11T03:55:22.514Z,54.22
2018-04-11T03:57:15.425Z,53.46
2018-04-11T03:58:15.399Z,53.27
2018-04-11T04:00:08.394Z,53.37
2018-04-11T04:01:08.373Z,52.51
2018-04-11T04:03:01.298Z,52.61
2018-04-11T04:04:01.267Z,52.23
2018-04-11T04:05:54.206Z,52.23
2018-04-11T04:06:54.192Z,51.95
2018-04-11T04:08:47.147Z,51.97
2018-04-11T04:09:47.107Z,52.06
2018-04-11T04:11:40.045Z,51.87
2018-04-11T04:12:40.016Z,52.16
2018-04-11T04:14:32.984Z,51.95
2018-04-11T04:15:32.966Z,51.95
2018-04-11T04:17:25.917Z,51.97
2018-04-11T04:18:25.901Z,52.23
2018-04-11T04:20:18.811Z,54.50
2018-04-11T04:21:18.788Z,54.88
2018-04-11T04:23:11.735Z,52.98
2018-04-11T04:24:11.695Z,52.89
2018-04-11T04:26:04.642Z,52.14
2018-04-11T04:27:04.620Z,52.14
2018-04-11T04:28:57.532Z,51.85
2018-04-11T04:29:57.509Z,52.04
2018-04-11T04:31:50.410Z,51.95
2018-04-11T04:32:50.390Z,52.11
2018-04-11T04:34:43.306Z,52.20
2018-04-11T04:35:43.296Z,52.23
2018-04-11T04:37:36.222Z,51.57
2018-04-11T04:38:36.193Z,51.18
2018-04-11T04:40:29.136Z,50.71
2018-04-11T04:41:29.116Z,50.05
2018-04-11T04:43:22.074Z,49.48
2018-04-11T04:44:22.006Z,49.29
2018-04-11T04:46:15.062Z,49.29
2018-04-11T04:47:15.031Z,49.29
2018-04-11T04:49:07.997Z,49.57
2018-04-11T04:50:07.964Z,49.48
2018-04-11T04:52:00.948Z,49.67
2018-04-11T04:53:00.905Z,49.48
2018-04-11T04:54:00.902Z,49.48
2018-04-11T04:55:00.912Z,49.60
2018-04-11T04:56:00.892Z,50.15
2018-04-11T04:57:00.879Z,50.24
2018-04-11T04:58:00.869Z,50.05
2018-04-11T04:59:00.864Z,50.17
2018-04-11T05:00:00.849Z,50.26
2018-04-11T05:01:00.840Z,49.79
2018-04-11T05:02:00.833Z,50.26
2018-04-11T05:03:00.836Z,50.36
2018-04-11T05:04:00.825Z,50.55
2018-04-11T05:05:00.808Z,51.03
2018-04-11T05:06:00.799Z,51.21
2018-04-11T05:07:00.795Z,51.97
2018-04-11T05:08:00.789Z,51.97
2018-04-11T05:09:00.772Z,52.06
2018-04-11T05:10:00.771Z,51.87
2018-04-11T05:11:00.765Z,51.97
2018-04-11T05:12:00.774Z,52.26
2018-04-11T05:13:00.752Z,51.59
2018-04-11T05:14:00.740Z,51.78
2018-04-11T05:15:00.727Z,51.59
2018-04-11T05:16:00.718Z,51.87
2018-04-11T05:17:00.701Z,51.87
2018-04-11T05:18:00.711Z,52.06
2018-04-11T05:19:00.688Z,51.97
2018-04-11T05:20:00.706Z,51.87
2018-04-11T05:21:00.678Z,52.26
2018-04-11T05:22:00.692Z,53.20
2018-04-11T05:23:00.665Z,55.13
2018-04-11T05:24:00.653Z,56.93
2018-04-11T05:25:00.649Z,57.09
2018-04-11T05:26:00.640Z,56.43
2018-04-11T05:27:00.638Z,55.86
2018-04-11T05:28:00.618Z,55.10
2018-04-11T05:29:00.615Z,55.48
2018-04-11T05:30:00.609Z,54.63
2018-04-11T05:31:00.604Z,55.10
2018-04-11T05:32:00.596Z,55.86
2018-04-11T05:33:00.583Z,56.43
2018-04-11T05:34:00.587Z,55.89
2018-04-11T05:35:00.575Z,55.79
2018-04-11T05:36:00.565Z,56.17
2018-04-11T05:37:00.573Z,56.65
2018-04-11T05:38:00.563Z,56.93
2018-04-11T05:39:00.606Z,57.88
2018-04-11T05:40:00.579Z,56.84
2018-04-11T05:41:00.519Z,57.40
2018-04-11T05:42:00.519Z,57.69
2018-04-11T05:43:00.512Z,57.21
2018-04-11T05:44:00.489Z,58.26
2018-04-11T05:45:00.490Z,58.45
2018-04-11T05:46:00.486Z,58.64
2018-04-11T05:47:00.477Z,59.59
2018-04-11T05:48:00.517Z,59.97
2018-04-11T05:49:00.466Z,60.76
2018-04-11T05:50:00.472Z,60.95
2018-04-11T05:51:00.449Z,61.52
2018-04-11T05:52:00.457Z,61.90
2018-04-11T05:53:00.470Z,62.66
2018-04-11T05:54:00.442Z,62.66
2018-04-11T05:55:00.429Z,62.66
2018-04-11T05:56:00.421Z,62.75
2018-04-11T05:57:00.414Z,63.32
2018-04-11T05:58:00.415Z,63.42
2018-04-11T05:59:00.393Z,64.11
2018-04-11T06:00:00.393Z,65.25
2018-04-11T06:01:00.390Z,67.06
2018-04-11T06:02:00.373Z,66.96
2018-04-11T06:03:00.370Z,66.49
2018-04-11T06:04:00.364Z,67.34
2018-04-11T06:05:00.350Z,69.05
2018-04-11T06:06:00.394Z,69.94
2018-04-11T06:07:00.351Z,69.56
2018-04-11T06:08:00.348Z,70.04
2018-04-11T06:09:00.329Z,71.18
2018-04-11T06:10:00.331Z,72.51
2018-04-11T06:11:00.338Z,74.31
2018-04-11T06:12:00.323Z,75.36
2018-04-11T06:13:00.327Z,75.45
2018-04-11T06:14:00.308Z,76.59
2018-04-11T06:15:00.309Z,76.97
2018-04-11T06:16:00.295Z,76.78
2018-04-11T06:17:00.305Z,76.63
2018-04-11T06:18:00.290Z,77.30
2018-04-11T06:19:00.273Z,77.49
2018-04-11T06:20:00.348Z,77.58
2018-04-11T06:21:00.275Z,78.34
2018-04-11T06:22:00.279Z,78.82
2018-04-11T06:23:00.315Z,79.68
2018-04-11T06:24:00.258Z,78.91
2018-04-11T06:25:00.253Z,79.33
2018-04-11T06:26:00.246Z,79.52
2018-04-11T06:27:00.245Z,79.43
2018-04-11T06:28:00.245Z,80.95
2018-04-11T06:29:00.239Z,80.76
2018-04-11T06:30:00.229Z,79.47
2018-04-11T06:31:00.261Z,81.09
2018-04-11T06:32:00.215Z,79.19
2018-04-11T06:33:00.219Z,80.71
2018-04-11T06:34:00.206Z,82.51
2018-04-11T06:35:00.216Z,83.32
2018-04-11T06:36:00.207Z,83.89
2018-04-11T06:37:00.195Z,83.80
2018-04-11T06:38:00.185Z,82.65
2018-04-11T06:39:00.227Z,85.46
2018-04-11T06:40:00.186Z,85.74
2018-04-11T06:41:00.174Z,86.12
2018-04-11T06:42:00.209Z,85.17
2018-04-11T06:43:00.174Z,84.03
2018-04-11T06:44:00.166Z,84.98
2018-04-11T06:45:00.163Z,83.74
2018-04-11T06:46:00.168Z,84.46
2018-04-11T06:47:00.167Z,82.65
2018-04-11T06:48:00.164Z,84.60
2018-04-11T06:49:00.149Z,84.22
2018-04-11T06:50:00.144Z,84.98
2018-04-11T06:51:00.144Z,86.16
2018-04-11T06:52:00.140Z,87.88
2018-04-11T06:53:00.142Z,89.50
2018-04-11T06:54:00.127Z,89.36
2018-04-11T06:55:00.135Z,89.93
2018-04-11T06:56:00.135Z,91.21
2018-04-11T06:57:00.127Z,92.74
2018-04-11T06:58:00.123Z,92.83
2018-04-11T06:59:00.114Z,92.02
2018-04-11T07:00:00.130Z,93.07
2018-04-11T07:01:00.121Z,95.27
2018-04-11T07:02:00.118Z,93.41
2018-04-11T07:03:00.113Z,93.50
2018-04-11T07:04:00.097Z,95.70
2018-04-11T07:05:00.113Z,94.07
2018-04-11T07:06:00.104Z,94.93
2018-04-11T07:07:00.101Z,95.84
2018-04-11T07:08:00.095Z,94.89
2018-04-11T07:09:00.098Z,95.36
2018-04-11T07:10:00.097Z,93.74
2018-04-11T07:11:00.091Z,94.79
2018-04-11T07:12:00.087Z,92.97
2018-04-11T07:13:00.088Z,90.83
2018-04-11T07:14:00.071Z,95.32
2018-04-11T07:15:00.080Z,93.60
2018-04-11T07:16:00.063Z,95.32
2018-04-11T07:17:00.071Z,95.03
2018-04-11T07:18:00.072Z,94.03
2018-04-11T07:19:00.067Z,94.07
2018-04-11T07:20:00.071Z,93.70
2018-04-11T07:21:00.069Z,95.41
2018-04-11T07:22:00.065Z,94.65
2018-04-11T07:23:00.066Z,94.55
2018-04-11T07:24:00.060Z,93.88
2018-04-11T07:25:00.052Z,94.65
2018-04-11T07:26:00.111Z,93.88
2018-04-11T07:27:00.056Z,95.17
2018-04-11T07:28:00.056Z,93.26
2018-04-11T07:29:00.040Z,93.07
2018-04-11T07:30:00.049Z,90.72
2018-04-11T07:31:00.040Z,85.93
2018-04-11T07:32:00.049Z,86.02
2018-04-11T07:33:00.050Z,83.42
2018-04-11T07:34:00.038Z,78.61
2018-04-11T07:35:00.050Z,72.12
2018-04-11T07:36:00.046Z,68.70
2018-04-11T07:37:00.047Z,67.63
2018-04-11T07:38:00.047Z,71.11
2018-04-11T07:39:00.048Z,76.25
2018-04-11T07:40:00.056Z,78.32
2018-04-11T07:41:00.080Z,80.90
2018-04-11T07:42:00.072Z,83.67
2018-04-11T07:43:00.083Z,73.87
2018-04-11T07:44:00.078Z,73.49
2018-04-11T07:45:00.094Z,71.95
2018-04-11T07:46:00.169Z,73.58
2018-04-11T07:47:00.107Z,73.30
2018-04-11T07:48:00.110Z,70.55
2018-04-11T07:49:00.115Z,69.46
2018-04-11T07:50:00.132Z,73.22
2018-04-11T07:51:00.136Z,71.47
2018-04-11T07:52:00.143Z,68.82
2018-04-11T07:53:00.154Z,68.53
2018-04-11T07:54:00.169Z,67.76
2018-04-11T07:55:00.183Z,70.90
2018-04-11T07:56:00.185Z,70.80
2018-04-11T07:57:00.200Z,66.64
2018-04-11T07:58:00.208Z,63.35
2018-04-11T07:59:00.244Z,61.68
2018-04-11T08:00:00.228Z,61.07
2018-04-11T08:01:00.252Z,60.33
2018-04-11T08:02:00.254Z,56.90
2018-04-11T08:03:00.279Z,57.06
2018-04-11T08:04:00.275Z,57.73
2018-04-11T08:05:00.284Z,56.82
2018-04-11T08:06:00.303Z,53.45
2018-04-11T08:07:00.300Z,54.30
2018-04-11T08:08:00.331Z,54.90
2018-04-11T08:09:00.355Z,54.10
2018-04-11T08:10:00.390Z,56.58
2018-04-11T08:11:00.360Z,56.58
2018-04-11T08:12:00.380Z,59.53
2018-04-11T08:13:00.391Z,56.62
2018-04-11T08:14:00.407Z,59.28
2018-04-11T08:15:00.413Z,59.60
2018-04-11T08:16:00.447Z,59.89
2018-04-11T08:17:00.454Z,56.96
2018-04-11T08:18:00.464Z,56.48
2018-04-11T08:19:00.477Z,55.93
2018-04-11T08:20:00.495Z,54.83
2018-04-11T08:21:00.505Z,54.08
2018-04-11T08:22:00.516Z,56.26
2018-04-11T08:23:00.528Z,56.23
2018-04-11T08:24:00.541Z,57.36
2018-04-11T08:25:00.556Z,57.80
2018-04-11T08:26:00.576Z,56.20
2018-04-11T08:27:00.592Z,55.94
2018-04-11T08:28:00.600Z,58.94
2018-04-11T08:29:00.603Z,58.87
2018-04-11T08:30:00.626Z,59.32
2018-04-11T08:31:00.647Z,61.72
2018-04-11T08:32:00.683Z,58.15
2018-04-11T08:33:00.676Z,57.29
2018-04-11T08:34:00.677Z,58.22
2018-04-11T08:35:00.700Z,58.39
2018-04-11T08:36:00.712Z,60.57
2018-04-11T08:37:00.726Z,60.85
2018-04-11T08:38:00.742Z,59.03
2018-04-11T08:39:00.754Z,61.78
2018-04-11T08:40:00.771Z,60.95
2018-04-11T08:41:00.783Z,58.25
2018-04-11T08:42:00.798Z,57.33
2018-04-11T08:43:00.805Z,57.43
2018-04-11T08:44:00.822Z,59.64
2018-04-11T08:45:00.834Z,57.77
2018-04-11T08:46:00.856Z,54.34
2018-04-11T08:47:00.866Z,53.06
2018-04-11T08:48:00.882Z,54.14
2018-04-11T08:49:00.895Z,54.34
2018-04-11T08:50:00.915Z,54.53
2018-04-11T08:51:00.930Z,53.25
2018-04-11T08:52:00.933Z,53.50
2018-04-11T08:53:00.954Z,52.40
2018-04-11T08:54:00.966Z,51.09
2018-04-11T08:55:00.983Z,53.19
2018-04-11T08:56:00.988Z,52.25
2018-04-11T08:57:01.013Z,52.27
2018-04-11T08:58:01.035Z,49.24
2018-04-11T08:59:01.041Z,46.25
2018-04-11T09:00:01.108Z,44.06
2018-04-11T09:01:01.073Z,45.14
2018-04-11T09:02:01.088Z,46.30
2018-04-11T09:03:01.103Z,46.45
2018-04-11T09:04:01.132Z,48.85
2018-04-11T09:05:01.152Z,51.76
2018-04-11T09:06:01.148Z,48.88
2018-04-11T09:07:01.164Z,49.00
2018-04-11T09:08:01.182Z,47.08
2018-04-11T09:09:01.200Z,49.00
2018-04-11T09:10:01.205Z,49.34
2018-04-11T09:11:01.236Z,47.19
2018-04-11T09:12:01.249Z,49.37
2018-04-11T09:13:01.265Z,46.37
2018-04-11T09:14:01.275Z,44.76
2018-04-11T09:15:01.309Z,44.54
2018-04-11T09:16:01.318Z,47.58
2018-04-11T09:17:01.338Z,49.00
2018-04-11T09:18:01.347Z,49.68
2018-04-11T09:19:01.356Z,48.54
2018-04-11T09:20:01.385Z,47.49
2018-04-11T09:21:01.390Z,48.59
2018-04-11T09:22:01.410Z,47.00
2018-04-11T09:23:01.427Z,46.13
2018-04-11T09:24:01.431Z,42.52
2018-04-11T09:25:01.468Z,44.22
2018-04-11T09:26:01.465Z,46.45
2018-04-11T09:27:01.486Z,48.30
2018-04-11T09:28:01.501Z,47.03
2018-04-11T09:29:01.517Z,45.62
2018-04-11T09:30:01.541Z,47.34
2018-04-11T09:31:01.553Z,47.82
2018-04-11T09:32:01.565Z,47.94
2018-04-11T09:33:01.615Z,47.70
2018-04-11T09:34:01.589Z,46.91
2018-04-11T09:35:01.614Z,47.58
2018-04-11T09:36:01.629Z,48.49
2018-04-11T09:37:01.644Z,49.51
2018-04-11T09:38:01.664Z,50.15
2018-04-11T09:39:01.672Z,49.46
2018-04-11T09:40:01.691Z,46.81
2018-04-11T09:41:01.702Z,43.71
2018-04-11T09:42:01.717Z,42.07
2018-04-11T09:43:01.755Z,41.41
2018-04-11T09:44:01.742Z,43.12
2018-04-11T09:45:01.768Z,45.72
2018-04-11T09:46:01.775Z,45.18
2018-04-11T09:47:01.793Z,45.31
2018-04-11T09:48:01.815Z,42.50
2018-04-11T09:49:01.831Z,42.68
2018-04-11T09:50:01.836Z,42.50
2018-04-11T09:51:01.862Z,45.48
2018-04-11T09:52:01.876Z,47.65
2018-04-11T09:53:01.894Z,47.58
2018-04-11T09:54:01.915Z,48.25
2018-04-11T09:55:01.931Z,46.64
2018-04-11T09:56:01.940Z,45.39
2018-04-11T09:57:01.963Z,46.49
2018-04-11T09:58:01.979Z,45.41
2018-04-11T09:59:01.984Z,47.60
2018-04-11T10:00:02.012Z,47.00
2018-04-11T10:01:02.027Z,47.10
2018-04-11T10:02:02.038Z,48.03
2018-04-11T10:03:02.065Z,47.03
2018-04-11T10:04:02.074Z,46.35
2018-04-11T10:05:02.117Z,47.49
2018-04-11T10:06:02.120Z,48.08
2018-04-11T10:07:02.134Z,47.60
2018-04-11T10:08:02.148Z,46.11
2018-04-11T10:09:02.165Z,45.34
2018-04-11T10:10:02.182Z,47.31
2018-04-11T10:11:02.195Z,48.57
2018-04-11T10:12:02.210Z,47.80
2018-04-11T10:13:02.236Z,47.41
2018-04-11T10:14:02.244Z,48.40
2018-04-11T10:15:02.262Z,46.11
2018-04-11T10:16:02.280Z,47.99
2018-04-11T10:17:02.296Z,46.73
2018-04-11T10:18:02.314Z,45.33
2018-04-11T10:19:02.383Z,43.34
2018-04-11T10:20:02.351Z,44.56
2018-04-11T10:21:02.372Z,45.91
2018-04-11T10:22:02.388Z,45.18
2018-04-11T10:23:02.399Z,44.49
2018-04-11T10:24:02.421Z,45.09
2018-04-11T10:25:02.436Z,44.73
2018-04-11T10:26:02.450Z,44.46
2018-04-11T10:27:02.472Z,44.42
2018-04-11T10:28:02.484Z,45.38
2018-04-11T10:29:02.509Z,45.45
2018-04-11T10:30:02.517Z,45.21
2018-04-11T10:31:02.537Z,44.46
2018-04-11T10:32:02.578Z,44.95
2018-04-11T10:33:02.580Z,46.71
2018-04-11T10:34:02.591Z,46.20
2018-04-11T10:35:02.604Z,47.89
2018-04-11T10:36:02.625Z,48.13
2018-04-11T10:37:02.658Z,46.64
2018-04-11T10:38:02.658Z,46.61
2018-04-11T10:39:02.680Z,44.49
2018-04-11T10:40:02.691Z,46.37
2018-04-11T10:41:02.707Z,47.22
2018-04-11T10:42:02.722Z,46.91
2018-04-11T10:43:02.757Z,50.04
2018-04-11T10:44:02.763Z,49.68
2018-04-11T10:45:02.778Z,48.30
2018-04-11T10:46:02.787Z,50.06
2018-04-11T10:47:02.808Z,49.55
2018-04-11T10:48:02.832Z,46.61
2018-04-11T10:49:02.845Z,45.40
2018-04-11T10:50:02.856Z,42.55
2018-04-11T10:51:02.879Z,43.37
2018-04-11T10:52:02.899Z,43.08
2018-04-11T10:53:02.913Z,42.74
2018-04-11T10:54:02.923Z,41.31
2018-04-11T10:55:02.949Z,44.32
2018-04-11T10:56:02.963Z,44.20
2018-04-11T10:57:02.974Z,47.29
2018-04-11T10:58:03.003Z,46.40
2018-04-11T10:59:02.995Z,47.80
2018-04-11T11:00:03.021Z,46.18
2018-04-11T11:01:03.040Z,47.41
2018-04-11T11:02:03.062Z,48.52
2018-04-11T11:03:03.079Z,49.77
2018-04-11T11:04:03.105Z,49.70
2018-04-11T11:05:03.117Z,50.47
2018-04-11T11:06:03.127Z,49.41
2018-04-11T11:07:03.146Z,49.82
2018-04-11T11:08:03.159Z,48.08
2018-04-11T11:09:03.164Z,47.29
2018-04-11T11:10:03.189Z,47.72
2018-04-11T11:11:03.199Z,45.07
2018-04-11T11:12:03.219Z,44.66
2018-04-11T11:13:03.238Z,43.72
2018-04-11T11:14:03.246Z,43.84
2018-04-11T11:15:03.264Z,41.56
2018-04-11T11:16:03.291Z,42.46
2018-04-11T11:17:03.300Z,43.47
2018-04-11T11:18:03.315Z,43.54
2018-04-11T11:19:03.335Z,44.46
2018-04-11T11:20:03.352Z,45.39
2018-04-11T11:21:03.364Z,44.18
2018-04-11T11:22:03.373Z,42.63
2018-04-11T11:23:03.404Z,45.20
2018-04-11T11:24:03.410Z,47.07
2018-04-11T11:25:03.418Z,43.41
2018-04-11T11:26:03.438Z,43.52
2018-04-11T11:27:03.450Z,42.87
2018-04-11T11:28:03.475Z,43.04
2018-04-11T11:29:03.486Z,44.18
2018-04-11T11:30:03.494Z,41.30
2018-04-11T11:31:03.514Z,41.36
2018-04-11T11:32:03.544Z,41.13
2018-04-11T11:33:03.542Z,41.91
2018-04-11T11:34:03.569Z,39.99
2018-04-11T11:35:03.568Z,41.15
2018-04-11T11:36:03.591Z,39.84
2018-04-11T11:37:03.605Z,40.77
2018-04-11T11:38:03.624Z,40.96
2018-04-11T11:39:03.643Z,40.03
2018-04-11T11:40:03.655Z,38.41
2018-04-11T11:41:03.662Z,39.39
2018-04-11T11:42:03.689Z,41.20
2018-04-11T11:43:03.704Z,41.35
2018-04-11T11:44:03.718Z,38.06
2018-04-11T11:45:03.739Z,39.03
2018-04-11T11:46:03.749Z,37.50
2018-04-11T11:47:03.769Z,39.84
2018-04-11T11:48:03.780Z,38.91
2018-04-11T11:49:03.795Z,39.57
2018-04-11T11:50:03.815Z,39.84
2018-04-11T11:51:03.825Z,40.90
2018-04-11T11:52:03.924Z,40.30
2018-04-11T11:53:03.876Z,40.24
2018-04-11T11:54:03.878Z,40.24
2018-04-11T11:55:03.886Z,41.09
2018-04-11T11:56:03.915Z,41.11
2018-04-11T11:57:03.943Z,40.24
2018-04-11T11:58:03.949Z,39.84
2018-04-11T11:59:03.963Z,38.89
2018-04-11T12:00:03.980Z,38.14
2018-04-11T12:01:03.994Z,37.90
2018-04-11T12:02:04.007Z,37.71
2018-04-11T12:03:04.019Z,36.38
2018-04-11T12:04:04.040Z,33.60
2018-04-11T12:05:04.040Z,33.92
2018-04-11T12:06:04.075Z,35.28
2018-04-11T12:07:04.096Z,34.01
2018-04-11T12:08:04.141Z,37.79
2018-04-11T12:09:04.113Z,37.95
2018-04-11T12:10:04.136Z,39.11
2018-04-11T12:11:04.147Z,38.04
2018-04-11T12:12:04.176Z,37.95
2018-04-11T12:13:04.184Z,37.42
2018-04-11T12:14:04.196Z,37.10
2018-04-11T12:15:04.205Z,39.70
2018-04-11T12:16:04.233Z,36.90
2018-04-11T12:17:04.250Z,35.55
2018-04-11T12:18:04.264Z,32.20
2018-04-11T12:19:04.268Z,31.73
2018-04-11T12:20:04.293Z,32.28
2018-04-11T12:21:04.311Z,36.21
2018-04-11T12:22:04.323Z,37.58
2018-04-11T12:23:04.366Z,38.62
2018-04-11T12:24:04.362Z,38.70
2018-04-11T12:25:04.424Z,42.03
2018-04-11T12:26:04.379Z,43.08
2018-04-11T12:27:04.406Z,43.35
2018-04-11T12:28:04.414Z,44.22
2018-04-11T12:29:04.427Z,44.60
2018-04-11T12:30:04.437Z,45.66
2018-04-11T12:31:04.447Z,44.70
2018-04-11T12:32:04.494Z,45.76
2018-04-11T12:33:04.475Z,43.26
2018-04-11T12:34:04.492Z,44.10
2018-04-11T12:35:04.503Z,43.93
2018-04-11T12:36:04.503Z,45.47
2018-04-11T12:37:04.509Z,44.38
2018-04-11T12:38:04.523Z,44.48
2018-04-11T12:39:04.508Z,44.12
2018-04-11T12:40:04.527Z,46.04
2018-04-11T12:41:04.540Z,47.30
2018-04-11T12:42:04.550Z,48.07
2018-04-11T12:43:04.559Z,45.45
2018-04-11T12:44:04.548Z,45.66
2018-04-11T12:45:04.566Z,46.72
2018-04-11T12:46:04.579Z,45.83
2018-04-11T12:47:04.570Z,44.68
2018-04-11T12:48:04.572Z,43.31
2018-04-11T12:49:04.573Z,45.14
2018-04-11T12:50:04.576Z,42.76
2018-04-11T12:51:04.586Z,44.12
2018-04-11T12:52:04.589Z,42.97
2018-04-11T12:53:04.582Z,40.47
2018-04-11T12:54:04.581Z,39.70
2018-04-11T12:55:04.599Z,41.05
2018-04-11T12:56:04.599Z,37.97
2018-04-11T12:57:04.604Z,40.85
2018-04-11T12:58:04.601Z,41.16
2018-04-11T12:59:04.595Z,39.04
2018-04-11T13:00:04.604Z,37.20
2018-04-11T13:01:04.645Z,39.12
2018-04-11T13:02:04.613Z,39.22
2018-04-11T13:03:04.608Z,37.97
2018-04-11T13:04:04.612Z,39.81
2018-04-11T13:05:04.605Z,37.41
2018-04-11T13:06:04.614Z,39.24
2018-04-11T13:07:04.617Z,38.66
2018-04-11T13:08:04.621Z,38.56
2018-04-11T13:09:04.622Z,38.16
2018-04-11T13:10:04.621Z,38.07
2018-04-11T13:11:04.617Z,38.84
2018-04-11T13:12:04.616Z,39.99
2018-04-11T13:13:04.623Z,40.28
2018-04-11T13:14:04.622Z,41.05
2018-04-11T13:15:04.625Z,41.43
2018-04-11T13:16:04.618Z,42.56
2018-04-11T13:17:04.626Z,42.08
2018-04-11T13:18:04.622Z,40.83
2018-04-11T13:19:04.619Z,41.00
2018-04-11T13:20:04.621Z,41.49
2018-04-11T13:21:04.628Z,44.17
2018-04-11T13:22:04.662Z,45.42
2018-04-11T13:23:04.631Z,44.46
2018-04-11T13:24:04.627Z,44.58
2018-04-11T13:25:04.632Z,44.87
2018-04-11T13:26:04.633Z,46.21
2018-04-11T13:27:04.631Z,43.84
2018-04-11T13:28:04.643Z,43.16
2018-04-11T13:29:04.622Z,42.49
2018-04-11T13:30:04.638Z,42.20
2018-04-11T13:31:04.634Z,40.83
2018-04-11T13:32:04.630Z,40.93
2018-04-11T13:33:04.636Z,44.70
2018-04-11T13:34:04.633Z,43.14
2018-04-11T13:35:04.662Z,43.71
2018-04-11T13:36:04.643Z,45.25
2018-04-11T13:37:04.644Z,41.99
2018-04-11T13:38:04.649Z,42.47
2018-04-11T13:39:04.635Z,43.52
2018-04-11T13:40:04.640Z,40.73
2018-04-11T13:41:04.636Z,41.02
2018-04-11T13:42:04.637Z,42.77
2018-04-11T13:43:04.635Z,43.23
2018-04-11T13:44:04.631Z,43.71
2018-04-11T13:45:04.639Z,41.89
2018-04-11T13:46:04.641Z,42.64
2018-04-11T13:47:04.646Z,44.00
2018-04-11T13:48:04.643Z,43.52
2018-04-11T13:49:04.631Z,43.23
2018-04-11T13:50:04.639Z,43.62
2018-04-11T13:51:04.638Z,42.54
2018-04-11T13:52:04.644Z,42.35
2018-04-11T13:53:04.645Z,42.73
2018-04-11T13:54:04.627Z,43.33
2018-04-11T13:55:04.639Z,42.54
2018-04-11T13:56:04.641Z,43.21
2018-04-11T13:57:04.642Z,41.39
2018-04-11T13:58:04.646Z,40.91
2018-04-11T13:59:04.637Z,42.08
2018-04-11T14:00:04.642Z,41.31
2018-04-11T14:01:04.646Z,41.22
2018-04-11T14:02:04.640Z,42.83
2018-04-11T14:03:04.646Z,43.21
2018-04-11T14:04:04.638Z,43.12
2018-04-11T14:05:04.647Z,42.76
2018-04-11T14:06:04.646Z,42.93
2018-04-11T14:07:04.641Z,42.64
2018-04-11T14:08:04.637Z,45.15
2018-04-11T14:09:04.643Z,43.40
2018-04-11T14:10:04.648Z,44.84
2018-04-11T14:11:04.651Z,41.20
2018-04-11T14:12:04.643Z,43.12
2018-04-11T14:13:04.652Z,42.83
2018-04-11T14:14:04.640Z,41.70
2018-04-11T14:15:04.650Z,42.77
2018-04-11T14:16:04.648Z,41.05